Time;durP1;ratioP1;P1;durP2;ratioP2;P2;SDS_P1;SDS_P2;PMS_P1;PMS_P2;Temp;Humidity;BMP_temperature;BMP_pressure;BME280_temperature;BME280_humidity;BME280_pressure;Samples;Min_cycle;Max_cycle;Signal;HPM_P1;HPM_P2
2022/05/02 00:01:38;;;;;;;;;;;7.50;99.90;;;;;;5082946;28;19924;-80
2022/05/02 00:04:05;;;;;;;;;;;7.50;99.90;;;;;;5078088;28;19950;-81
2022/05/02 00:06:34;;;;;;;;;;;7.40;99.90;;;;;;5088143;28;19923;-84
2022/05/02 00:09:03;;;;;;;;;;;7.40;99.90;;;;;;5091985;28;20184;-82
2022/05/02 00:11:31;;;;;;;;;;;7.40;99.90;;;;;;5088279;28;19955;-80
2022/05/02 00:13:58;;;;;;;;;;;7.50;99.90;;;;;;5094566;28;19924;-79
2022/05/02 00:16:24;;;;;;;;;;;7.40;99.90;;;;;;5089480;28;19924;-78
2022/05/02 00:18:51;;;;;;;;;;;7.20;99.90;;;;;;5087405;28;20023;-83
2022/05/02 00:21:18;;;;;;;;;;;7.20;99.90;;;;;;5085482;28;20035;-81
2022/05/02 00:23:44;;;;;;;;;;;7.20;99.90;;;;;;5095441;28;20393;-81
2022/05/02 00:26:11;;;;;;;;;;;7.20;99.90;;;;;;5086209;28;20011;-82
2022/05/02 00:28:39;;;;;;;;;;;7.30;99.90;;;;;;5079987;28;20382;-83
2022/05/02 00:31:06;;;;;;;;;;;7.30;99.90;;;;;;5081926;28;19931;-84
2022/05/02 00:33:32;;;;;;;;;;;7.30;99.90;;;;;;5095609;28;19930;-82
2022/05/02 00:35:59;;;;;;;;;;;7.30;99.90;;;;;;5099115;28;19924;-85
2022/05/02 00:38:26;;;;;;;;;;;7.20;99.90;;;;;;5094207;28;19924;-79
2022/05/02 00:40:53;;;;;;;;;;;7.20;99.90;;;;;;5085044;28;19938;-81
2022/05/02 00:43:19;;;;;;;;;;;7.20;99.90;;;;;;5092466;28;19924;-80
2022/05/02 00:45:47;;;;;;;;;;;7.10;99.90;;;;;;5085435;28;19935;-80
2022/05/02 00:48:14;;;;;;;;;;;7.10;99.90;;;;;;5085209;28;19935;-78
2022/05/02 00:50:42;;;;;;;;;;;7.00;99.90;;;;;;5085828;28;20026;-83
2022/05/02 00:53:10;;;;;;;;;;;7.00;99.90;;;;;;5083975;28;19933;-79
2022/05/02 00:55:37;;;;;;;;;;;7.00;99.90;;;;;;5082889;28;19983;-80
2022/05/02 00:58:05;;;;;;;;;;;6.90;99.90;;;;;;5088320;28;19970;-82
2022/05/02 01:00:33;;;;;;;;;;;6.90;99.90;;;;;;5096095;28;19931;-79
2022/05/02 01:03:01;;;;;;;;;;;6.80;99.90;;;;;;5094570;28;20015;-80
2022/05/02 01:05:27;;;;;;;;;;;6.80;99.90;;;;;;5085516;28;19932;-81
2022/05/02 01:07:53;;;;;;;;;;;6.70;99.90;;;;;;5083449;28;19924;-81
2022/05/02 01:10:20;;;;;;;;;;;6.70;99.90;;;;;;5083253;28;19938;-78
2022/05/02 01:12:48;;;;;;;;;;;6.70;99.90;;;;;;5083570;28;20383;-81
2022/05/02 01:15:15;;;;;;;;;;;6.70;99.90;;;;;;5083542;28;19930;-80
2022/05/02 01:17:42;;;;;;;;;;;6.60;99.90;;;;;;5082861;28;20167;-78
2022/05/02 01:20:11;;;;;;;;;;;6.60;99.90;;;;;;5090859;28;19943;-78
2022/05/02 01:22:37;;;;;;;;;;;6.60;99.90;;;;;;5087151;28;21949;-79
2022/05/02 01:25:04;;;;;;;;;;;6.60;99.90;;;;;;5086145;28;19967;-80
2022/05/02 01:27:31;;;;;;;;;;;6.50;99.90;;;;;;5087940;28;20018;-78
2022/05/02 01:29:58;;;;;;;;;;;6.50;99.90;;;;;;5088816;28;19924;-81
2022/05/02 01:32:25;;;;;;;;;;;6.50;99.90;;;;;;5085132;28;20022;-82
2022/05/02 01:34:51;;;;;;;;;;;6.50;99.90;;;;;;5088661;28;20027;-77
2022/05/02 01:37:19;;;;;;;;;;;6.50;99.90;;;;;;5102054;28;19996;-79
2022/05/02 01:39:46;;;;;;;;;;;6.50;99.90;;;;;;5099392;28;19995;-77
2022/05/02 01:42:13;;;;;;;;;;;6.40;99.90;;;;;;5087023;28;20455;-78
2022/05/02 01:44:40;;;;;;;;;;;6.30;99.90;;;;;;5085757;28;19934;-78
2022/05/02 01:47:08;;;;;;;;;;;6.30;99.90;;;;;;5086046;28;19934;-80
2022/05/02 01:49:34;;;;;;;;;;;6.20;99.90;;;;;;5102705;28;19959;-78
2022/05/02 01:52:01;;;;;;;;;;;6.20;99.90;;;;;;5101376;28;19978;-78
2022/05/02 01:54:29;;;;;;;;;;;6.10;99.90;;;;;;5098652;28;19963;-79
2022/05/02 01:56:56;;;;;;;;;;;6.10;99.90;;;;;;5100777;28;19924;-79
2022/05/02 01:59:23;;;;;;;;;;;6.10;99.90;;;;;;5102775;28;20548;-79
2022/05/02 02:01:50;;;;;;;;;;;6.00;99.90;;;;;;5095505;28;19955;-80
2022/05/02 02:07:01;;;;;;;;;;;5.90;99.90;;;;;;5082994;28;19931;-80
2022/05/02 02:09:29;;;;;;;;;;;6.00;99.90;;;;;;5083430;28;19934;-79
2022/05/02 02:11:57;;;;;;;;;;;5.90;99.90;;;;;;5084405;28;19950;-79
2022/05/02 02:14:24;;;;;;;;;;;6.00;99.90;;;;;;5081965;28;19930;-79
2022/05/02 02:16:51;;;;;;;;;;;5.90;99.90;;;;;;5088743;28;20469;-78
2022/05/02 02:19:17;;;;;;;;;;;5.90;99.90;;;;;;5092935;28;19971;-79
2022/05/02 02:21:44;;;;;;;;;;;5.90;99.90;;;;;;5089606;28;20290;-81
2022/05/02 02:24:10;;;;;;;;;;;5.80;99.90;;;;;;5095679;28;20426;-79
2022/05/02 02:26:39;;;;;;;;;;;5.80;99.90;;;;;;5099344;28;20403;-79
2022/05/02 02:29:06;;;;;;;;;;;5.70;99.90;;;;;;5103677;28;19924;-80
2022/05/02 02:31:32;;;;;;;;;;;5.70;99.90;;;;;;5095127;28;19983;-81
2022/05/02 02:33:59;;;;;;;;;;;5.70;99.90;;;;;;5085100;28;19932;-79
2022/05/02 02:36:26;;;;;;;;;;;5.70;99.90;;;;;;5084932;28;20018;-77
2022/05/02 02:38:52;;;;;;;;;;;5.70;99.90;;;;;;5093772;28;20610;-77
2022/05/02 02:41:19;;;;;;;;;;;5.70;99.90;;;;;;5088213;28;20426;-77
2022/05/02 02:43:47;;;;;;;;;;;5.70;99.90;;;;;;5090205;28;19931;-78
2022/05/02 02:46:14;;;;;;;;;;;5.60;99.90;;;;;;5090198;28;19942;-80
2022/05/02 02:48:40;;;;;;;;;;;5.60;99.90;;;;;;5087467;28;19924;-79
2022/05/02 02:51:07;;;;;;;;;;;5.60;99.90;;;;;;5090868;28;20723;-80
2022/05/02 02:53:34;;;;;;;;;;;5.60;99.90;;;;;;5084367;28;19938;-78
2022/05/02 02:56:01;;;;;;;;;;;5.60;99.90;;;;;;5091862;28;19924;-79
2022/05/02 02:58:27;;;;;;;;;;;5.50;99.90;;;;;;5100431;28;19967;-80
2022/05/02 03:00:55;;;;;;;;;;;5.50;99.90;;;;;;5093846;28;19980;-78
2022/05/02 03:03:22;;;;;;;;;;;5.50;99.90;;;;;;5092442;28;19994;-77
2022/05/02 03:08:40;;;;;;;;;;;5.50;99.90;;;;;;5103221;28;20007;-78
2022/05/02 03:11:07;;;;;;;;;;;5.40;99.90;;;;;;5098537;28;20233;-78
2022/05/02 03:13:34;;;;;;;;;;;5.40;99.90;;;;;;5107346;28;19980;-79
2022/05/02 03:16:02;;;;;;;;;;;5.40;99.90;;;;;;5105123;28;19946;-78
2022/05/02 03:18:29;;;;;;;;;;;5.40;99.90;;;;;;5105550;28;19999;-78
2022/05/02 03:20:56;;;;;;;;;;;5.40;99.90;;;;;;5092523;28;19924;-78
2022/05/02 03:23:23;;;;;;;;;;;5.30;99.90;;;;;;5091029;28;20379;-78
2022/05/02 03:25:49;;;;;;;;;;;5.30;99.90;;;;;;5092622;28;20383;-78
2022/05/02 03:28:17;;;;;;;;;;;5.30;99.90;;;;;;5089375;28;19924;-78
2022/05/02 03:30:44;;;;;;;;;;;5.30;99.90;;;;;;5094416;28;19924;-79
2022/05/02 03:33:12;;;;;;;;;;;5.30;99.90;;;;;;5091659;28;20034;-78
2022/05/02 03:35:38;;;;;;;;;;;5.30;99.90;;;;;;5096728;28;19924;-79
2022/05/02 03:38:05;;;;;;;;;;;5.30;99.90;;;;;;5102310;28;19956;-79
2022/05/02 03:40:32;;;;;;;;;;;5.20;99.90;;;;;;5100015;28;19939;-78
2022/05/02 03:42:59;;;;;;;;;;;5.20;99.90;;;;;;5097118;28;19924;-79
2022/05/02 03:45:26;;;;;;;;;;;5.20;99.90;;;;;;5101451;28;19964;-79
2022/05/02 03:47:52;;;;;;;;;;;5.20;99.90;;;;;;5092996;28;19932;-77
2022/05/02 03:50:21;;;;;;;;;;;5.20;99.90;;;;;;5087475;28;20470;-78
2022/05/02 03:52:48;;;;;;;;;;;5.20;99.90;;;;;;5085233;28;19932;-77
2022/05/02 03:55:14;;;;;;;;;;;5.10;99.90;;;;;;5085407;28;19931;-76
2022/05/02 03:57:41;;;;;;;;;;;5.10;99.90;;;;;;5085766;28;19924;-76
2022/05/02 04:00:08;;;;;;;;;;;5.10;99.90;;;;;;5084147;28;20029;-78
2022/05/02 04:02:35;;;;;;;;;;;5.10;99.90;;;;;;5089250;28;20023;-77
2022/05/02 04:05:02;;;;;;;;;;;5.10;99.90;;;;;;5091601;28;19924;-77
2022/05/02 04:07:30;;;;;;;;;;;5.00;99.90;;;;;;5088665;28;19924;-77
2022/05/02 04:09:56;;;;;;;;;;;5.00;99.90;;;;;;5097943;28;19932;-78
2022/05/02 04:12:23;;;;;;;;;;;5.00;99.90;;;;;;5098035;28;19923;-77
2022/05/02 04:14:50;;;;;;;;;;;5.00;99.90;;;;;;5099164;28;19931;-77
2022/05/02 04:17:17;;;;;;;;;;;5.00;99.90;;;;;;5101729;28;20015;-77
2022/05/02 04:19:43;;;;;;;;;;;5.00;99.90;;;;;;5100089;28;20286;-77
2022/05/02 04:22:10;;;;;;;;;;;4.90;99.90;;;;;;5098533;28;19939;-77
2022/05/02 04:24:38;;;;;;;;;;;4.90;99.90;;;;;;5108155;28;19980;-77
2022/05/02 04:27:05;;;;;;;;;;;4.90;99.90;;;;;;5094045;28;20376;-78
2022/05/02 04:29:31;;;;;;;;;;;5.00;99.90;;;;;;5103039;28;19924;-78
2022/05/02 04:31:58;;;;;;;;;;;5.10;99.90;;;;;;5088353;28;20406;-78
2022/05/02 04:34:26;;;;;;;;;;;5.10;99.90;;;;;;5100880;28;20035;-78
2022/05/02 04:36:53;;;;;;;;;;;5.10;99.90;;;;;;5100646;28;19924;-78
2022/05/02 04:39:19;;;;;;;;;;;5.10;99.90;;;;;;5102059;28;19979;-79
2022/05/02 04:41:47;;;;;;;;;;;5.10;99.90;;;;;;5092531;28;19935;-79
2022/05/02 04:44:14;;;;;;;;;;;5.10;99.90;;;;;;5112237;28;19924;-79
2022/05/02 04:46:41;;;;;;;;;;;5.10;99.90;;;;;;5107466;28;20018;-78
2022/05/02 04:49:07;;;;;;;;;;;5.20;99.90;;;;;;5117465;28;19984;-78
2022/05/02 04:51:34;;;;;;;;;;;5.20;99.90;;;;;;5098637;28;19923;-79
2022/05/02 04:54:01;;;;;;;;;;;5.20;99.90;;;;;;5110762;28;19970;-78
2022/05/02 04:56:27;;;;;;;;;;;5.20;99.90;;;;;;5104559;28;19963;-78
2022/05/02 04:58:55;;;;;;;;;;;5.30;99.90;;;;;;5092198;28;19932;-78
2022/05/02 05:01:22;;;;;;;;;;;5.40;99.90;;;;;;5105303;28;19923;-78
2022/05/02 05:03:49;;;;;;;;;;;5.40;99.90;;;;;;5099945;28;20681;-78
2022/05/02 05:06:15;;;;;;;;;;;5.50;99.90;;;;;;5111207;28;20336;-78
2022/05/02 05:08:42;;;;;;;;;;;5.50;99.90;;;;;;5103772;28;19928;-78
2022/05/02 05:11:22;;;;;;;;;;;5.50;99.90;;;;;;5096638;28;20295;-78
2022/05/02 05:16:20;;;;;;;;;;;5.60;99.90;;;;;;5094813;28;19924;-78
2022/05/02 05:16:55;;;;;;;;;;;5.60;99.90;;;;;;5104619;28;19930;-79
2022/05/02 05:19:36;;;;;;;;;;;5.70;99.90;;;;;;5112990;28;19946;-80
2022/05/02 05:22:08;;;;;;;;;;;5.80;99.90;;;;;;5114280;28;19991;-80
2022/05/02 05:24:46;;;;;;;;;;;5.90;99.90;;;;;;5112389;28;20443;-79
2022/05/02 05:27:19;;;;;;;;;;;5.90;99.90;;;;;;5114767;28;19991;-80
2022/05/02 05:29:48;;;;;;;;;;;6.00;99.90;;;;;;5108468;28;20439;-80
2022/05/02 05:32:39;;;;;;;;;;;;;;;;;;;;;
2022/05/02 05:35:07;;;;;;;;;;;6.20;99.90;;;;;;5104721;28;20094;-80
2022/05/02 05:37:42;;;;;;;;;;;6.40;99.90;;;;;;5102425;28;20211;-80
2022/05/02 05:40:13;;;;;;;;;;;6.50;99.90;;;;;;5097033;28;19931;-83
2022/05/02 05:42:45;;;;;;;;;;;6.60;99.90;;;;;;5096316;28;19971;-81
2022/05/02 05:45:15;;;;;;;;;;;6.60;99.90;;;;;;5093838;28;19938;-83
2022/05/02 05:47:53;;;;;;;;;;;6.70;99.90;;;;;;5087818;28;19924;-86
2022/05/02 05:50:22;;;;;;;;;;;6.90;99.90;;;;;;5086204;28;20391;-80
2022/05/02 05:53:05;;;;;;;;;;;7.00;99.90;;;;;;5090806;28;19927;-84
2022/05/02 05:55:40;;;;;;;;;;;7.10;99.90;;;;;;5090780;28;19934;-88
2022/05/02 05:58:12;;;;;;;;;;;7.20;99.90;;;;;;5084686;28;20023;-81
2022/05/02 06:00:44;;;;;;;;;;;7.40;99.90;;;;;;5079842;28;19930;-83
2022/05/02 06:03:14;;;;;;;;;;;7.50;99.90;;;;;;5091940;28;20407;-83
2022/05/02 06:05:43;;;;;;;;;;;7.50;99.90;;;;;;5087645;28;20409;-83
2022/05/02 06:08:10;;;;;;;;;;;7.70;99.90;;;;;;5079946;28;19986;-82
2022/05/02 06:10:37;;;;;;;;;;;7.80;99.90;;;;;;5093331;28;19924;-85
2022/05/02 06:13:03;;;;;;;;;;;7.90;99.90;;;;;;5090343;28;20007;-85
2022/05/02 06:18:29;;;;;;;;;;;8.10;99.90;;;;;;5087899;28;19939;-85
2022/05/02 06:20:56;;;;;;;;;;;8.20;99.90;;;;;;5091750;28;19923;-85
2022/05/02 06:23:25;;;;;;;;;;;8.40;99.90;;;;;;5080333;28;20383;-85
2022/05/02 06:25:53;;;;;;;;;;;8.50;99.90;;;;;;5089428;28;19924;-79
2022/05/02 06:28:22;;;;;;;;;;;8.60;99.90;;;;;;5094580;28;19924;-78
2022/05/02 06:30:50;;;;;;;;;;;8.70;99.90;;;;;;5098376;28;20023;-82
2022/05/02 06:33:20;;;;;;;;;;;8.70;99.90;;;;;;5100278;28;20014;-81
2022/05/02 06:35:56;;;;;;;;;;;8.70;99.90;;;;;;5108741;28;19923;-77
2022/05/02 06:38:31;;;;;;;;;;;8.90;99.90;;;;;;5100386;28;19943;-80
2022/05/02 06:41:03;;;;;;;;;;;9.10;99.90;;;;;;5088478;28;19930;-78
2022/05/02 06:43:33;;;;;;;;;;;9.20;99.90;;;;;;5100863;28;19930;-77
2022/05/02 06:46:04;;;;;;;;;;;9.30;99.90;;;;;;5096272;28;19974;-77
2022/05/02 06:48:41;;;;;;;;;;;9.40;99.90;;;;;;5100789;28;20006;-79
2022/05/02 06:51:12;;;;;;;;;;;9.70;99.90;;;;;;5090331;28;19924;-78
2022/05/02 06:53:57;;;;;;;;;;;9.90;99.90;;;;;;5090685;28;20459;-82
2022/05/02 06:56:30;;;;;;;;;;;10.00;99.90;;;;;;5094449;28;19924;-83
2022/05/02 06:59:01;;;;;;;;;;;10.80;99.20;;;;;;5088953;28;19970;-77
2022/05/02 07:01:31;;;;;;;;;;;13.30;93.80;;;;;;5085828;28;19923;-78
2022/05/02 07:04:13;;;;;;;;;;;14.00;80.80;;;;;;5094694;28;19930;-76
2022/05/02 07:06:45;;;;;;;;;;;14.20;74.60;;;;;;5086012;28;19928;-78
2022/05/02 07:09:14;;;;;;;;;;;14.50;71.70;;;;;;5091899;28;19972;-77
2022/05/02 07:11:44;;;;;;;;;;;14.30;70.60;;;;;;5105524;28;19935;-77
2022/05/02 07:14:16;;;;;;;;;;;14.70;67.90;;;;;;5102265;28;20298;-76
2022/05/02 07:16:45;;;;;;;;;;;15.80;64.80;;;;;;5086490;28;19994;-77
2022/05/02 07:19:23;;;;;;;;;;;15.80;58.80;;;;;;5111619;28;19924;-80
2022/05/02 07:21:55;;;;;;;;;;;15.70;58.80;;;;;;5097340;28;20011;-79
2022/05/02 07:24:31;;;;;;;;;;;16.20;57.70;;;;;;5101376;28;19924;-78
2022/05/02 07:27:01;;;;;;;;;;;16.50;54.80;;;;;;5094261;28;19930;-78
2022/05/02 07:29:28;;;;;;;;;;;16.40;51.30;;;;;;5108855;28;19924;-80
2022/05/02 07:31:55;;;;;;;;;;;16.00;51.30;;;;;;5097373;28;19931;-79
2022/05/02 07:34:23;;;;;;;;;;;16.10;51.50;;;;;;5086432;28;19924;-75
2022/05/02 07:36:53;;;;;;;;;;;16.10;49.10;;;;;;5103205;28;19930;-76
2022/05/02 07:39:22;;;;;;;;;;;16.50;48.00;;;;;;5107382;28;19946;-75
2022/05/02 07:41:49;;;;;;;;;;;16.50;47.80;;;;;;5091044;28;19932;-77
2022/05/02 07:44:17;;;;;;;;;;;16.70;44.40;;;;;;5105152;28;19982;-76
2022/05/02 07:46:45;;;;;;;;;;;17.10;44.60;;;;;;5090343;28;20477;-76
2022/05/02 07:49:14;;;;;;;;;;;16.40;41.60;;;;;;5091349;28;20016;-77
2022/05/02 07:51:46;;;;;;;;;;;17.00;41.70;;;;;;5090599;28;19934;-77
2022/05/02 07:54:15;;;;;;;;;;;16.80;40.50;;;;;;5107499;28;19929;-78
2022/05/02 07:56:42;;;;;;;;;;;17.00;39.90;;;;;;5092232;28;19932;-76
2022/05/02 07:59:10;;;;;;;;;;;17.70;40.30;;;;;;5109678;28;20834;-76
2022/05/02 08:01:36;;;;;;;;;;;18.70;37.50;;;;;;5084211;28;19972;-76
2022/05/02 08:04:03;;;;;;;;;;;17.80;36.00;;;;;;5091668;28;19970;-76
2022/05/02 08:06:47;;;;;;;;;;;17.30;33.90;;;;;;5093126;28;19931;-76
2022/05/02 08:09:22;;;;;;;;;;;17.50;33.40;;;;;;5093358;28;19935;-77
2022/05/02 08:11:54;;;;;;;;;;;17.30;33.00;;;;;;5092721;28;19930;-76
2022/05/02 08:14:22;;;;;;;;;;;16.60;33.00;;;;;;5114521;28;19924;-74
2022/05/02 08:16:57;;;;;;;;;;;16.90;34.20;;;;;;5111474;28;19928;-76
2022/05/02 08:19:31;;;;;;;;;;;17.20;34.30;;;;;;5093671;28;20378;-77
2022/05/02 08:27:40;;;;;;;;;;;18.00;29.20;;;;;;5102790;28;19978;-75
2022/05/02 08:30:10;;;;;;;;;;;18.40;31.20;;;;;;5104377;28;19933;-76
2022/05/02 08:32:56;;;;;;;;;;;18.10;29.00;;;;;;5101958;28;20014;-75
2022/05/02 08:35:27;;;;;;;;;;;17.70;28.60;;;;;;5092612;28;19924;-75
2022/05/02 08:38:15;;;;;;;;;;;17.50;30.00;;;;;;5102211;28;19924;-76
2022/05/02 08:41:03;;;;;;;;;;;17.20;29.70;;;;;;5076421;28;20398;-74
2022/05/02 08:43:45;;;;;;;;;;;16.60;28.50;;;;;;5099720;28;19924;-76
2022/05/02 08:46:45;;;;;;;;;;;17.70;27.50;;;;;;5092287;28;19931;-74
2022/05/02 08:49:36;;;;;;;;;;;17.50;26.00;;;;;;5010266;28;19929;-74
2022/05/02 08:52:18;;;;;;;;;;;17.70;27.60;;;;;;5006732;28;19979;-75
2022/05/02 08:54:59;;;;;;;;;;;17.40;27.00;;;;;;5080426;28;19930;-76
2022/05/02 08:57:45;;;;;;;;;;;17.10;26.80;;;;;;5092749;28;19942;-75
2022/05/02 09:00:16;;;;;;;;;;;17.20;25.60;;;;;;5099328;28;19923;-74
2022/05/02 09:03:03;;;;;;;;;;;17.90;25.60;;;;;;5091155;28;19997;-73
2022/05/02 09:05:48;;;;;;;;;;;18.30;23.70;;;;;;5097277;28;19930;-76
2022/05/02 09:08:38;;;;;;;;;;;17.60;24.40;;;;;;5090932;28;19931;-74
2022/05/02 09:11:12;;;;;;;;;;;17.50;25.00;;;;;;5094753;28;20509;-74
2022/05/02 09:14:02;;;;;;;;;;;17.50;24.30;;;;;;5096001;28;19924;-79
2022/05/02 09:16:46;;;;;;;;;;;17.30;24.10;;;;;;5101479;28;19930;-74
2022/05/02 09:19:32;;;;;;;;;;;18.60;23.80;;;;;;5091646;28;19982;-74
2022/05/02 09:22:17;;;;;;;;;;;19.50;21.20;;;;;;5074468;28;19925;-76
2022/05/02 09:24:59;;;;;;;;;;;19.30;20.30;;;;;;5092985;28;20023;-75
2022/05/02 09:27:35;;;;;;;;;;;19.20;21.90;;;;;;5094037;28;19962;-75
2022/05/02 09:30:26;;;;;;;;;;;18.50;21.20;;;;;;5091171;28;19967;-75
2022/05/02 09:33:05;;;;;;;;;;;19.00;20.90;;;;;;5092800;28;20010;-73
2022/05/02 09:35:33;;;;;;;;;;;18.50;20.40;;;;;;5097513;28;19938;-74
2022/05/02 09:38:00;;;;;;;;;;;19.00;20.00;;;;;;5100161;28;19977;-73
2022/05/02 09:40:33;;;;;;;;;;;19.30;18.30;;;;;;5092980;28;20340;-73
2022/05/02 09:43:07;;;;;;;;;;;18.70;17.50;;;;;;5100121;28;20173;-75
2022/05/02 09:51:32;;;;;;;;;;;18.30;19.30;;;;;;5106659;28;19931;-73
2022/05/02 09:54:03;;;;;;;;;;;19.20;17.30;;;;;;5106660;28;19923;-77
2022/05/02 09:56:39;;;;;;;;;;;18.30;20.10;;;;;;5113339;28;19923;-79
2022/05/02 09:59:07;;;;;;;;;;;18.20;19.80;;;;;;5090959;28;20015;-80
2022/05/02 10:01:34;;;;;;;;;;;17.80;21.00;;;;;;5091494;28;19924;-79
2022/05/02 10:04:18;;;;;;;;;;;17.30;20.30;;;;;;5101043;28;19939;-83
2022/05/02 10:06:49;;;;;;;;;;;16.90;21.10;;;;;;5096610;28;20010;-80
2022/05/02 10:09:18;;;;;;;;;;;16.90;22.70;;;;;;5093491;28;20018;-84
2022/05/02 10:12:03;;;;;;;;;;;16.50;21.00;;;;;;5096773;28;19924;-82
2022/05/02 10:14:42;;;;;;;;;;;16.30;21.70;;;;;;5083158;28;20030;-82
2022/05/02 10:17:11;;;;;;;;;;;16.30;21.30;;;;;;5106713;28;19942;-83
2022/05/02 10:19:48;;;;;;;;;;;16.70;21.30;;;;;;5107066;28;19923;-83
2022/05/02 10:22:24;;;;;;;;;;;16.50;20.80;;;;;;5100142;28;20373;-80
2022/05/02 10:25:00;;;;;;;;;;;16.90;22.30;;;;;;5107811;28;19931;-84
2022/05/02 10:27:37;;;;;;;;;;;16.60;19.90;;;;;;5098367;28;19931;-80
2022/05/02 10:30:05;;;;;;;;;;;16.80;20.10;;;;;;5092370;28;19924;-83
2022/05/02 10:32:47;;;;;;;;;;;17.20;19.50;;;;;;5094075;28;19924;-83
2022/05/02 10:35:17;;;;;;;;;;;16.60;21.30;;;;;;5095296;28;19924;-83
2022/05/02 10:37:55;;;;;;;;;;;16.70;21.80;;;;;;5094693;28;19935;-79
2022/05/02 10:40:29;;;;;;;;;;;16.80;20.20;;;;;;5095495;28;19971;-82
2022/05/02 10:42:57;;;;;;;;;;;16.90;19.10;;;;;;5103452;28;20010;-82
2022/05/02 10:45:25;;;;;;;;;;;17.30;21.20;;;;;;5096735;28;19924;-81
2022/05/02 10:47:52;;;;;;;;;;;16.50;20.20;;;;;;5095664;28;19923;-81
2022/05/02 10:50:21;;;;;;;;;;;16.10;20.80;;;;;;5091813;28;19932;-81
2022/05/02 10:53:03;;;;;;;;;;;16.40;19.50;;;;;;5100680;28;19928;-81
2022/05/02 10:55:32;;;;;;;;;;;16.50;19.20;;;;;;5056949;28;19924;-80
2022/05/02 10:58:01;;;;;;;;;;;16.70;20.40;;;;;;5092400;28;19924;-81
2022/05/02 11:00:28;;;;;;;;;;;17.10;19.10;;;;;;5103301;28;20028;-80
2022/05/02 11:03:07;;;;;;;;;;;17.00;18.40;;;;;;5104874;28;20396;-79
2022/05/02 11:05:44;;;;;;;;;;;16.80;19.70;;;;;;5104126;28;19930;-80
2022/05/02 11:08:12;;;;;;;;;;;16.90;20.10;;;;;;5090602;28;19924;-81
2022/05/02 11:10:40;;;;;;;;;;;16.90;19.50;;;;;;5092983;28;19977;-82
2022/05/02 11:13:10;;;;;;;;;;;17.10;20.70;;;;;;5099922;28;19924;-79
2022/05/02 11:15:44;;;;;;;;;;;17.10;19.30;;;;;;5090974;28;20295;-80
2022/05/02 11:20:41;;;;;;;;;;;17.10;21.90;;;;;;5086707;28;20387;-80
2022/05/02 11:21:02;;;;;;;;;;;17.20;20.00;;;;;;5102790;28;19930;-81
2022/05/02 11:23:46;;;;;;;;;;;16.80;18.50;;;;;;5107417;28;19924;-81
2022/05/02 11:26:17;;;;;;;;;;;16.90;20.70;;;;;;5102095;28;19928;-82
2022/05/02 11:28:55;;;;;;;;;;;16.90;20.00;;;;;;5089148;28;19929;-82
2022/05/02 11:31:23;;;;;;;;;;;16.80;20.30;;;;;;5109567;28;20361;-83
2022/05/02 11:33:54;;;;;;;;;;;16.50;20.40;;;;;;5093211;28;19924;-82
2022/05/02 11:36:25;;;;;;;;;;;16.60;20.30;;;;;;5089872;28;20010;-81
2022/05/02 11:38:55;;;;;;;;;;;16.70;20.10;;;;;;5089587;28;19924;-80
2022/05/02 11:41:22;;;;;;;;;;;17.10;19.00;;;;;;5099173;28;19924;-81
2022/05/02 11:43:49;;;;;;;;;;;17.50;18.90;;;;;;5085693;28;19924;-81
2022/05/02 11:46:18;;;;;;;;;;;16.90;18.30;;;;;;5099994;28;20035;-83
2022/05/02 11:49:03;;;;;;;;;;;16.90;18.40;;;;;;5103648;28;20014;-83
2022/05/02 11:51:38;;;;;;;;;;;17.00;19.40;;;;;;5095805;28;19931;-77
2022/05/02 11:54:08;;;;;;;;;;;17.20;18.90;;;;;;5093908;28;19939;-73
2022/05/02 11:56:40;;;;;;;;;;;17.20;17.50;;;;;;5090405;28;19931;-79
2022/05/02 11:59:12;;;;;;;;;;;17.20;18.40;;;;;;5105494;28;19976;-79
2022/05/02 12:01:41;;;;;;;;;;;17.50;17.50;;;;;;5111134;28;20006;-82
2022/05/02 12:04:09;;;;;;;;;;;17.70;17.70;;;;;;5098230;28;19924;-80
2022/05/02 12:06:43;;;;;;;;;;;18.00;19.40;;;;;;5100247;28;19971;-82
2022/05/02 12:09:19;;;;;;;;;;;17.20;18.20;;;;;;5103940;28;19977;-80
2022/05/02 12:11:53;;;;;;;;;;;17.00;19.90;;;;;;5107088;28;19993;-82
2022/05/02 12:14:20;;;;;;;;;;;17.20;20.90;;;;;;5106358;28;19928;-79
2022/05/02 12:17:02;;;;;;;;;;;17.10;19.10;;;;;;5114077;28;19935;-81
2022/05/02 12:19:30;;;;;;;;;;;17.20;18.40;;;;;;5081792;28;19924;-81
2022/05/02 12:21:58;;;;;;;;;;;17.40;17.90;;;;;;5094887;28;19924;-81
2022/05/02 12:24:27;;;;;;;;;;;17.70;17.90;;;;;;5075937;28;19999;-81
2022/05/02 12:26:54;;;;;;;;;;;18.00;18.60;;;;;;5082077;28;19934;-82
2022/05/02 12:29:21;;;;;;;;;;;17.70;17.70;;;;;;5095038;28;19946;-83
2022/05/02 12:31:53;;;;;;;;;;;17.60;16.50;;;;;;5115219;28;19930;-81
2022/05/02 12:34:21;;;;;;;;;;;17.80;17.40;;;;;;5112101;28;19931;-82
2022/05/02 12:36:52;;;;;;;;;;;17.70;17.50;;;;;;5091082;28;19935;-79
2022/05/02 12:39:22;;;;;;;;;;;18.00;16.50;;;;;;5092723;28;19924;-79
2022/05/02 12:41:50;;;;;;;;;;;18.00;16.10;;;;;;5085304;28;19946;-79
2022/05/02 12:44:17;;;;;;;;;;;18.00;16.30;;;;;;5115188;28;19944;-80
2022/05/02 12:46:45;;;;;;;;;;;18.20;16.90;;;;;;5098671;28;19924;-79
2022/05/02 12:49:16;;;;;;;;;;;17.90;17.10;;;;;;5097964;28;19924;-81
2022/05/02 12:51:49;;;;;;;;;;;18.00;18.10;;;;;;5112303;28;19924;-80
2022/05/02 12:54:16;;;;;;;;;;;17.80;17.70;;;;;;5097395;28;20085;-81
2022/05/02 13:02:37;;;;;;;;;;;18.40;17.10;;;;;;5085783;28;20062;-81
2022/05/02 13:05:08;;;;;;;;;;;18.20;16.70;;;;;;5093475;28;19932;-82
2022/05/02 13:07:38;;;;;;;;;;;18.80;16.10;;;;;;5092247;28;20030;-79
2022/05/02 13:10:05;;;;;;;;;;;19.40;15.30;;;;;;5095991;28;19932;-78
2022/05/02 13:12:33;;;;;;;;;;;18.70;16.70;;;;;;5102213;28;19971;-78
2022/05/02 13:15:00;;;;;;;;;;;18.40;17.40;;;;;;5102286;28;20345;-78
2022/05/02 13:17:28;;;;;;;;;;;17.80;16.70;;;;;;5098753;28;19924;-79
2022/05/02 13:19:55;;;;;;;;;;;17.50;17.30;;;;;;5113096;28;20354;-78
2022/05/02 13:22:22;;;;;;;;;;;17.80;17.90;;;;;;5107854;28;19986;-79
2022/05/02 13:24:52;;;;;;;;;;;17.80;17.10;;;;;;5092872;28;19927;-80
2022/05/02 13:27:21;;;;;;;;;;;17.70;17.70;;;;;;5097703;28;19925;-82
2022/05/02 13:29:58;;;;;;;;;;;18.20;17.10;;;;;;5092982;28;19928;-81
2022/05/02 13:32:26;;;;;;;;;;;18.30;15.80;;;;;;5084957;28;19928;-82
2022/05/02 13:35:01;;;;;;;;;;;18.00;16.70;;;;;;5094741;28;20298;-79
2022/05/02 13:37:36;;;;;;;;;;;18.10;16.80;;;;;;5100165;28;19924;-79
2022/05/02 13:40:08;;;;;;;;;;;18.20;15.70;;;;;;5077982;28;20549;-78
2022/05/02 13:42:46;;;;;;;;;;;18.60;15.50;;;;;;5090886;28;19978;-80
2022/05/02 13:45:17;;;;;;;;;;;19.10;14.40;;;;;;5090644;28;19925;-80
2022/05/02 13:47:47;;;;;;;;;;;19.30;14.60;;;;;;5097154;28;19924;-80
2022/05/02 13:50:15;;;;;;;;;;;19.00;15.60;;;;;;5086135;28;19969;-80
2022/05/02 13:52:48;;;;;;;;;;;19.00;16.70;;;;;;5103969;28;20018;-81
2022/05/02 13:55:19;;;;;;;;;;;18.50;16.70;;;;;;5112257;28;19932;-80
2022/05/02 13:57:50;;;;;;;;;;;17.80;16.20;;;;;;5094126;28;19967;-79
2022/05/02 14:03:16;;;;;;;;;;;17.20;16.50;;;;;;5042358;28;19968;-80
2022/05/02 14:05:58;;;;;;;;;;;17.40;17.30;;;;;;5097577;28;19928;-78
2022/05/02 14:08:29;;;;;;;;;;;17.50;17.10;;;;;;5101301;28;19927;-79
2022/05/02 14:10:57;;;;;;;;;;;18.00;16.70;;;;;;5096696;28;19924;-81
2022/05/02 14:13:24;;;;;;;;;;;18.50;16.00;;;;;;5099733;28;20385;-79
2022/05/02 14:15:52;;;;;;;;;;;18.70;15.90;;;;;;5107362;28;20115;-80
2022/05/02 14:18:21;;;;;;;;;;;18.20;15.60;;;;;;5089802;28;19954;-79
2022/05/02 14:20:47;;;;;;;;;;;18.00;16.40;;;;;;5096296;28;20005;-81
2022/05/02 14:23:14;;;;;;;;;;;17.90;15.70;;;;;;5095200;28;19934;-78
2022/05/02 14:25:42;;;;;;;;;;;18.10;15.50;;;;;;5098199;28;19923;-80
2022/05/02 14:28:12;;;;;;;;;;;18.50;16.00;;;;;;5091276;28;19924;-81
2022/05/02 14:30:41;;;;;;;;;;;18.60;15.10;;;;;;5101210;28;19924;-82
2022/05/02 14:33:11;;;;;;;;;;;18.70;16.00;;;;;;5092077;28;20409;-80
2022/05/02 14:35:39;;;;;;;;;;;18.80;16.00;;;;;;5096308;28;19986;-80
2022/05/02 14:38:06;;;;;;;;;;;18.50;15.60;;;;;;5094689;28;19927;-79
2022/05/02 14:40:33;;;;;;;;;;;18.10;15.80;;;;;;5083676;28;19928;-79
2022/05/02 14:42:59;;;;;;;;;;;18.00;16.60;;;;;;5096057;28;19932;-78
2022/05/02 14:45:26;;;;;;;;;;;17.80;16.70;;;;;;5097312;28;19924;-79
2022/05/02 14:47:53;;;;;;;;;;;17.80;16.90;;;;;;5081676;28;20030;-79
2022/05/02 14:50:21;;;;;;;;;;;18.00;16.90;;;;;;5097429;28;20156;-81
2022/05/02 14:52:49;;;;;;;;;;;18.50;16.10;;;;;;5098061;28;19967;-82
2022/05/02 14:55:17;;;;;;;;;;;18.50;16.80;;;;;;5106610;28;19954;-82
2022/05/02 14:57:46;;;;;;;;;;;18.00;16.80;;;;;;5102992;28;19931;-84
2022/05/02 15:00:14;;;;;;;;;;;17.70;17.90;;;;;;5105837;28;20298;-83
2022/05/02 15:02:41;;;;;;;;;;;18.00;17.60;;;;;;5099897;28;19924;-80
2022/05/02 15:05:11;;;;;;;;;;;17.70;18.00;;;;;;5092627;28;19931;-79
2022/05/02 15:07:59;;;;;;;;;;;17.50;17.20;;;;;;5082591;28;20378;-79
2022/05/02 15:10:35;;;;;;;;;;;17.30;17.50;;;;;;5102851;28;20350;-81
2022/05/02 15:13:12;;;;;;;;;;;17.30;17.20;;;;;;5095369;28;20002;-82